Bowstring, Minnesota
Current Conditions -  °F | °C
As of 2:33 AM on Friday 19 Dec 2014 (Local Time) from KFOZ Reporting Station
Overcast Overcast  
Wind Chill: 13°   Ceiling: 500
Heat Index: 21°   Visibility: 10mi
Dew Point: 18°   Wind: 7mph
Humidity: 86%   Direction: 180°S
Pressure: 30.19"   Gusts: NA
Location:  47.54°N, 93.8°W
Report Text: KFOZ 190833Z AUTO 18006KT 10SM OVC005 M06/M08 A3019 RMK AO2
Loading
Personal Weather Stations






























Interactive Weather Map New forecast layout! Learn more

10-Day Weather Forecast

Advertisements
Track Severe Weather on mobile